sensor_id;sensor_type;location;lat;lon;timestamp;P1;durP1;ratioP1;P2;durP2;ratioP2
17790;SDS011;9019;48.132;-1.210;2023-09-08T00:01:20;20.98;;;10.57;;
17790;SDS011;9019;48.132;-1.210;2023-09-08T00:03:47;14.80;;;10.15;;
17790;SDS011;9019;48.132;-1.210;2023-09-08T00:06:15;13.57;;;9.73;;
17790;SDS011;9019;48.132;-1.210;2023-09-08T00:08:50;18.38;;;10.20;;
17790;SDS011;9019;48.132;-1.210;2023-09-08T00:11:21;17.98;;;10.38;;
17790;SDS011;9019;48.132;-1.210;2023-09-08T00:13:53;16.42;;;10.55;;
17790;SDS011;9019;48.132;-1.210;2023-09-08T00:16:21;20.33;;;10.57;;
17790;SDS011;9019;48.132;-1.210;2023-09-08T00:18:49;15.55;;;10.10;;
17790;SDS011;9019;48.132;-1.210;2023-09-08T00:21:18;17.30;;;10.88;;
17790;SDS011;9019;48.132;-1.210;2023-09-08T00:23:45;16.10;;;10.70;;
17790;SDS011;9019;48.132;-1.210;2023-09-08T00:26:15;16.85;;;10.30;;
17790;SDS011;9019;48.132;-1.210;2023-09-08T00:28:42;16.33;;;9.82;;
17790;SDS011;9019;48.132;-1.210;2023-09-08T00:31:11;18.45;;;9.38;;
17790;SDS011;9019;48.132;-1.210;2023-09-08T00:33:39;17.33;;;9.32;;
17790;SDS011;9019;48.132;-1.210;2023-09-08T00:36:09;14.02;;;9.18;;
17790;SDS011;9019;48.132;-1.210;2023-09-08T00:38:36;14.85;;;9.35;;
17790;SDS011;9019;48.132;-1.210;2023-09-08T00:41:04;16.83;;;9.38;;
17790;SDS011;9019;48.132;-1.210;2023-09-08T00:43:32;18.92;;;9.70;;
17790;SDS011;9019;48.132;-1.210;2023-09-08T00:46:02;13.57;;;9.27;;
17790;SDS011;9019;48.132;-1.210;2023-09-08T00:48:33;13.23;;;9.27;;
17790;SDS011;9019;48.132;-1.210;2023-09-08T00:51:03;19.40;;;8.95;;
17790;SDS011;9019;48.132;-1.210;2023-09-08T00:53:32;13.18;;;10.05;;
17790;SDS011;9019;48.132;-1.210;2023-09-08T00:56:00;16.45;;;9.55;;
17790;SDS011;9019;48.132;-1.210;2023-09-08T00:58:28;16.60;;;11.20;;
17790;SDS011;9019;48.132;-1.210;2023-09-08T01:00:57;15.30;;;9.55;;
17790;SDS011;9019;48.132;-1.210;2023-09-08T01:03:25;15.82;;;9.95;;
17790;SDS011;9019;48.132;-1.210;2023-09-08T01:05:54;17.17;;;9.88;;
17790;SDS011;9019;48.132;-1.210;2023-09-08T01:08:22;18.40;;;9.85;;
17790;SDS011;9019;48.132;-1.210;2023-09-08T01:10:50;14.10;;;9.35;;
17790;SDS011;9019;48.132;-1.210;2023-09-08T01:13:18;16.52;;;9.35;;
17790;SDS011;9019;48.132;-1.210;2023-09-08T01:15:46;13.95;;;9.40;;
17790;SDS011;9019;48.132;-1.210;2023-09-08T01:18:13;14.55;;;8.90;;
17790;SDS011;9019;48.132;-1.210;2023-09-08T01:20:46;11.80;;;9.27;;
17790;SDS011;9019;48.132;-1.210;2023-09-08T01:23:20;14.43;;;9.20;;
17790;SDS011;9019;48.132;-1.210;2023-09-08T01:25:50;14.30;;;9.98;;
17790;SDS011;9019;48.132;-1.210;2023-09-08T01:28:20;16.33;;;11.23;;
17790;SDS011;9019;48.132;-1.210;2023-09-08T01:30:48;20.05;;;10.70;;
17790;SDS011;9019;48.132;-1.210;2023-09-08T01:33:16;21.05;;;10.75;;
17790;SDS011;9019;48.132;-1.210;2023-09-08T01:35:44;19.23;;;12.25;;
17790;SDS011;9019;48.132;-1.210;2023-09-08T01:38:12;16.30;;;10.98;;
17790;SDS011;9019;48.132;-1.210;2023-09-08T01:40:39;22.58;;;11.35;;
17790;SDS011;9019;48.132;-1.210;2023-09-08T01:43:08;18.05;;;11.35;;
17790;SDS011;9019;48.132;-1.210;2023-09-08T01:45:35;19.80;;;11.18;;
17790;SDS011;9019;48.132;-1.210;2023-09-08T01:48:03;19.35;;;11.48;;
17790;SDS011;9019;48.132;-1.210;2023-09-08T01:50:30;15.27;;;11.10;;
17790;SDS011;9019;48.132;-1.210;2023-09-08T01:52:57;15.88;;;11.35;;
17790;SDS011;9019;48.132;-1.210;2023-09-08T01:55:25;18.55;;;11.32;;
17790;SDS011;9019;48.132;-1.210;2023-09-08T01:57:52;16.30;;;10.45;;
17790;SDS011;9019;48.132;-1.210;2023-09-08T02:00:21;13.80;;;11.15;;
17790;SDS011;9019;48.132;-1.210;2023-09-08T02:02:48;18.83;;;11.30;;
17790;SDS011;9019;48.132;-1.210;2023-09-08T02:05:15;15.73;;;11.18;;
17790;SDS011;9019;48.132;-1.210;2023-09-08T02:07:44;17.60;;;12.02;;
17790;SDS011;9019;48.132;-1.210;2023-09-08T02:10:11;19.75;;;11.57;;
17790;SDS011;9019;48.132;-1.210;2023-09-08T02:12:38;16.52;;;11.15;;
17790;SDS011;9019;48.132;-1.210;2023-09-08T02:15:06;24.05;;;12.75;;
17790;SDS011;9019;48.132;-1.210;2023-09-08T02:17:35;16.55;;;12.25;;
17790;SDS011;9019;48.132;-1.210;2023-09-08T02:20:03;15.80;;;12.60;;
17790;SDS011;9019;48.132;-1.210;2023-09-08T02:22:30;18.48;;;14.27;;
17790;SDS011;9019;48.132;-1.210;2023-09-08T02:24:58;24.52;;;12.85;;
17790;SDS011;9019;48.132;-1.210;2023-09-08T02:27:25;20.75;;;12.98;;
17790;SDS011;9019;48.132;-1.210;2023-09-08T02:29:53;15.50;;;12.32;;
17790;SDS011;9019;48.132;-1.210;2023-09-08T02:32:20;19.30;;;12.55;;
17790;SDS011;9019;48.132;-1.210;2023-09-08T02:34:49;16.15;;;12.82;;
17790;SDS011;9019;48.132;-1.210;2023-09-08T02:37:17;13.80;;;11.73;;
17790;SDS011;9019;48.132;-1.210;2023-09-08T02:39:45;15.65;;;10.95;;
17790;SDS011;9019;48.132;-1.210;2023-09-08T02:42:12;14.45;;;10.40;;
17790;SDS011;9019;48.132;-1.210;2023-09-08T02:44:39;15.85;;;10.70;;
17790;SDS011;9019;48.132;-1.210;2023-09-08T02:47:08;15.65;;;11.35;;
17790;SDS011;9019;48.132;-1.210;2023-09-08T02:49:36;15.73;;;11.57;;
17790;SDS011;9019;48.132;-1.210;2023-09-08T02:52:05;15.38;;;11.10;;
17790;SDS011;9019;48.132;-1.210;2023-09-08T02:54:33;19.17;;;13.18;;
17790;SDS011;9019;48.132;-1.210;2023-09-08T02:57:00;19.75;;;12.63;;
17790;SDS011;9019;48.132;-1.210;2023-09-08T02:59:27;22.70;;;13.18;;
17790;SDS011;9019;48.132;-1.210;2023-09-08T03:01:55;16.25;;;12.15;;
17790;SDS011;9019;48.132;-1.210;2023-09-08T03:04:22;18.33;;;12.32;;
17790;SDS011;9019;48.132;-1.210;2023-09-08T03:06:49;19.60;;;11.98;;
17790;SDS011;9019;48.132;-1.210;2023-09-08T03:09:18;17.05;;;12.25;;
17790;SDS011;9019;48.132;-1.210;2023-09-08T03:11:46;22.40;;;12.35;;
17790;SDS011;9019;48.132;-1.210;2023-09-08T03:14:13;19.63;;;12.40;;
17790;SDS011;9019;48.132;-1.210;2023-09-08T03:16:40;22.05;;;13.05;;
17790;SDS011;9019;48.132;-1.210;2023-09-08T03:19:07;18.05;;;12.63;;
17790;SDS011;9019;48.132;-1.210;2023-09-08T03:21:35;19.08;;;12.02;;
17790;SDS011;9019;48.132;-1.210;2023-09-08T03:24:03;17.90;;;12.07;;
17790;SDS011;9019;48.132;-1.210;2023-09-08T03:26:32;21.00;;;12.40;;
17790;SDS011;9019;48.132;-1.210;2023-09-08T03:29:00;19.23;;;12.85;;
17790;SDS011;9019;48.132;-1.210;2023-09-08T03:31:27;20.83;;;13.05;;
17790;SDS011;9019;48.132;-1.210;2023-09-08T03:33:55;18.08;;;13.32;;
17790;SDS011;9019;48.132;-1.210;2023-09-08T03:36:22;19.98;;;13.80;;
17790;SDS011;9019;48.132;-1.210;2023-09-08T03:38:49;19.80;;;12.88;;
17790;SDS011;9019;48.132;-1.210;2023-09-08T03:41:17;13.73;;;10.50;;
17790;SDS011;9019;48.132;-1.210;2023-09-08T03:43:46;15.48;;;10.73;;
17790;SDS011;9019;48.132;-1.210;2023-09-08T03:46:14;13.43;;;9.90;;
17790;SDS011;9019;48.132;-1.210;2023-09-08T03:48:41;12.45;;;10.15;;
17790;SDS011;9019;48.132;-1.210;2023-09-08T03:51:08;15.75;;;10.13;;
17790;SDS011;9019;48.132;-1.210;2023-09-08T03:53:36;13.68;;;10.52;;
17790;SDS011;9019;48.132;-1.210;2023-09-08T03:56:03;15.82;;;10.40;;
17790;SDS011;9019;48.132;-1.210;2023-09-08T03:58:30;13.73;;;11.05;;
17790;SDS011;9019;48.132;-1.210;2023-09-08T04:00:59;15.43;;;11.60;;
17790;SDS011;9019;48.132;-1.210;2023-09-08T04:03:26;13.98;;;10.93;;
17790;SDS011;9019;48.132;-1.210;2023-09-08T04:05:54;18.05;;;11.02;;
17790;SDS011;9019;48.132;-1.210;2023-09-08T04:08:21;14.18;;;10.93;;
17790;SDS011;9019;48.132;-1.210;2023-09-08T04:10:48;19.02;;;11.75;;
17790;SDS011;9019;48.132;-1.210;2023-09-08T04:13:16;18.45;;;11.50;;
17790;SDS011;9019;48.132;-1.210;2023-09-08T04:15:43;18.63;;;12.10;;
17790;SDS011;9019;48.132;-1.210;2023-09-08T04:18:12;18.42;;;11.50;;
17790;SDS011;9019;48.132;-1.210;2023-09-08T04:20:39;17.27;;;11.18;;
17790;SDS011;9019;48.132;-1.210;2023-09-08T04:23:07;19.40;;;12.60;;
17790;SDS011;9019;48.132;-1.210;2023-09-08T04:25:34;21.98;;;13.20;;
17790;SDS011;9019;48.132;-1.210;2023-09-08T04:28:01;19.75;;;12.90;;
17790;SDS011;9019;48.132;-1.210;2023-09-08T04:30:29;17.85;;;12.02;;
17790;SDS011;9019;48.132;-1.210;2023-09-08T04:32:57;17.55;;;11.55;;
17790;SDS011;9019;48.132;-1.210;2023-09-08T04:35:25;18.80;;;11.65;;
17790;SDS011;9019;48.132;-1.210;2023-09-08T04:37:53;17.00;;;11.70;;
17790;SDS011;9019;48.132;-1.210;2023-09-08T04:40:20;18.48;;;11.90;;
17790;SDS011;9019;48.132;-1.210;2023-09-08T04:42:47;17.90;;;11.93;;
17790;SDS011;9019;48.132;-1.210;2023-09-08T04:45:15;18.30;;;11.68;;
17790;SDS011;9019;48.132;-1.210;2023-09-08T04:47:42;13.27;;;11.05;;
17790;SDS011;9019;48.132;-1.210;2023-09-08T04:50:11;17.67;;;11.95;;
17790;SDS011;9019;48.132;-1.210;2023-09-08T04:52:40;16.08;;;12.10;;
17790;SDS011;9019;48.132;-1.210;2023-09-08T04:55:08;17.67;;;12.43;;
17790;SDS011;9019;48.132;-1.210;2023-09-08T04:57:35;15.82;;;12.10;;
17790;SDS011;9019;48.132;-1.210;2023-09-08T05:00:03;20.27;;;12.20;;
17790;SDS011;9019;48.132;-1.210;2023-09-08T05:02:30;14.75;;;11.40;;
17790;SDS011;9019;48.132;-1.210;2023-09-08T05:04:58;16.83;;;11.82;;
17790;SDS011;9019;48.132;-1.210;2023-09-08T05:07:26;21.60;;;13.50;;
17790;SDS011;9019;48.132;-1.210;2023-09-08T05:09:59;18.10;;;13.07;;
17790;SDS011;9019;48.132;-1.210;2023-09-08T05:12:27;16.48;;;12.95;;
17790;SDS011;9019;48.132;-1.210;2023-09-08T05:14:54;22.40;;;13.60;;
17790;SDS011;9019;48.132;-1.210;2023-09-08T05:17:25;20.52;;;13.07;;
17790;SDS011;9019;48.132;-1.210;2023-09-08T05:19:52;18.42;;;13.55;;
17790;SDS011;9019;48.132;-1.210;2023-09-08T05:22:19;18.50;;;12.93;;
17790;SDS011;9019;48.132;-1.210;2023-09-08T05:24:47;20.13;;;13.98;;
17790;SDS011;9019;48.132;-1.210;2023-09-08T05:27:15;19.00;;;12.60;;
17790;SDS011;9019;48.132;-1.210;2023-09-08T05:29:43;17.50;;;12.73;;
17790;SDS011;9019;48.132;-1.210;2023-09-08T05:32:10;19.65;;;12.93;;
17790;SDS011;9019;48.132;-1.210;2023-09-08T05:34:37;17.83;;;12.13;;
17790;SDS011;9019;48.132;-1.210;2023-09-08T05:37:04;20.27;;;12.30;;
17790;SDS011;9019;48.132;-1.210;2023-09-08T05:39:32;13.98;;;11.15;;
17790;SDS011;9019;48.132;-1.210;2023-09-08T05:41:59;15.35;;;11.35;;
17790;SDS011;9019;48.132;-1.210;2023-09-08T05:44:28;20.80;;;11.77;;
17790;SDS011;9019;48.132;-1.210;2023-09-08T05:46:55;20.63;;;12.48;;
17790;SDS011;9019;48.132;-1.210;2023-09-08T05:49:22;16.92;;;12.40;;
17790;SDS011;9019;48.132;-1.210;2023-09-08T05:51:50;17.88;;;11.60;;
17790;SDS011;9019;48.132;-1.210;2023-09-08T05:54:17;14.15;;;10.88;;
17790;SDS011;9019;48.132;-1.210;2023-09-08T05:56:44;16.67;;;10.50;;
17790;SDS011;9019;48.132;-1.210;2023-09-08T05:59:11;16.92;;;11.10;;
17790;SDS011;9019;48.132;-1.210;2023-09-08T06:01:40;13.65;;;10.93;;
17790;SDS011;9019;48.132;-1.210;2023-09-08T06:04:08;15.38;;;11.20;;
17790;SDS011;9019;48.132;-1.210;2023-09-08T06:06:35;17.48;;;12.10;;
17790;SDS011;9019;48.132;-1.210;2023-09-08T06:09:03;15.57;;;11.75;;
17790;SDS011;9019;48.132;-1.210;2023-09-08T06:11:31;16.23;;;11.73;;
17790;SDS011;9019;48.132;-1.210;2023-09-08T06:13:59;17.27;;;11.90;;
17790;SDS011;9019;48.132;-1.210;2023-09-08T06:16:26;19.90;;;11.93;;
17790;SDS011;9019;48.132;-1.210;2023-09-08T06:18:55;20.83;;;12.27;;
17790;SDS011;9019;48.132;-1.210;2023-09-08T06:21:22;12.80;;;11.10;;
17790;SDS011;9019;48.132;-1.210;2023-09-08T06:23:50;18.90;;;12.38;;
17790;SDS011;9019;48.132;-1.210;2023-09-08T06:26:17;17.45;;;12.15;;
17790;SDS011;9019;48.132;-1.210;2023-09-08T06:28:44;20.17;;;12.60;;
17790;SDS011;9019;48.132;-1.210;2023-09-08T06:31:11;18.85;;;11.85;;
17790;SDS011;9019;48.132;-1.210;2023-09-08T06:33:39;14.43;;;11.25;;
17790;SDS011;9019;48.132;-1.210;2023-09-08T06:36:08;18.92;;;11.43;;
17790;SDS011;9019;48.132;-1.210;2023-09-08T06:38:35;15.40;;;11.75;;
17790;SDS011;9019;48.132;-1.210;2023-09-08T06:41:07;18.67;;;12.18;;
17790;SDS011;9019;48.132;-1.210;2023-09-08T06:43:35;20.05;;;12.18;;
17790;SDS011;9019;48.132;-1.210;2023-09-08T06:46:02;17.52;;;11.05;;
17790;SDS011;9019;48.132;-1.210;2023-09-08T06:48:29;15.57;;;10.85;;
17790;SDS011;9019;48.132;-1.210;2023-09-08T06:50:56;18.05;;;11.23;;
17790;SDS011;9019;48.132;-1.210;2023-09-08T06:53:25;15.70;;;11.10;;
17790;SDS011;9019;48.132;-1.210;2023-09-08T06:55:52;22.33;;;11.93;;
17790;SDS011;9019;48.132;-1.210;2023-09-08T06:58:20;23.00;;;11.52;;
17790;SDS011;9019;48.132;-1.210;2023-09-08T07:00:47;15.75;;;10.88;;
17790;SDS011;9019;48.132;-1.210;2023-09-08T07:03:15;15.95;;;12.15;;
17790;SDS011;9019;48.132;-1.210;2023-09-08T07:05:42;14.98;;;11.00;;
17790;SDS011;9019;48.132;-1.210;2023-09-08T07:08:09;18.15;;;12.20;;
17790;SDS011;9019;48.132;-1.210;2023-09-08T07:10:38;17.70;;;12.35;;
17790;SDS011;9019;48.132;-1.210;2023-09-08T07:13:05;17.40;;;11.55;;
17790;SDS011;9019;48.132;-1.210;2023-09-08T07:15:32;19.23;;;12.30;;
17790;SDS011;9019;48.132;-1.210;2023-09-08T07:17:59;16.02;;;12.63;;
17790;SDS011;9019;48.132;-1.210;2023-09-08T07:20:27;18.30;;;11.73;;
17790;SDS011;9019;48.132;-1.210;2023-09-08T07:22:55;15.70;;;11.88;;
17790;SDS011;9019;48.132;-1.210;2023-09-08T07:25:22;18.02;;;12.48;;
17790;SDS011;9019;48.132;-1.210;2023-09-08T07:27:51;19.13;;;11.55;;
17790;SDS011;9019;48.132;-1.210;2023-09-08T07:30:18;17.48;;;11.18;;
17790;SDS011;9019;48.132;-1.210;2023-09-08T07:32:46;17.90;;;11.13;;
17790;SDS011;9019;48.132;-1.210;2023-09-08T07:35:13;15.90;;;11.05;;
17790;SDS011;9019;48.132;-1.210;2023-09-08T07:37:41;15.45;;;11.15;;
17790;SDS011;9019;48.132;-1.210;2023-09-08T07:40:09;12.60;;;9.32;;
17790;SDS011;9019;48.132;-1.210;2023-09-08T07:42:37;15.60;;;10.23;;
17790;SDS011;9019;48.132;-1.210;2023-09-08T07:45:07;14.25;;;10.50;;
17790;SDS011;9019;48.132;-1.210;2023-09-08T07:47:35;18.95;;;11.32;;
17790;SDS011;9019;48.132;-1.210;2023-09-08T07:52:45;16.10;;;10.05;;
17790;SDS011;9019;48.132;-1.210;2023-09-08T07:55:13;14.88;;;9.40;;
17790;SDS011;9019;48.132;-1.210;2023-09-08T07:57:41;12.20;;;8.73;;
17790;SDS011;9019;48.132;-1.210;2023-09-08T08:00:10;12.82;;;8.63;;
17790;SDS011;9019;48.132;-1.210;2023-09-08T08:02:37;10.27;;;8.32;;
17790;SDS011;9019;48.132;-1.210;2023-09-08T08:05:04;13.18;;;8.07;;
17790;SDS011;9019;48.132;-1.210;2023-09-08T08:07:32;15.10;;;8.45;;
17790;SDS011;9019;48.132;-1.210;2023-09-08T08:10:00;18.17;;;8.23;;
17790;SDS011;9019;48.132;-1.210;2023-09-08T08:12:27;11.15;;;7.05;;
17790;SDS011;9019;48.132;-1.210;2023-09-08T08:14:54;16.98;;;7.68;;
17790;SDS011;9019;48.132;-1.210;2023-09-08T08:17:23;16.88;;;8.23;;
17790;SDS011;9019;48.132;-1.210;2023-09-08T08:19:51;11.07;;;7.85;;
17790;SDS011;9019;48.132;-1.210;2023-09-08T08:22:18;14.00;;;7.72;;
17790;SDS011;9019;48.132;-1.210;2023-09-08T08:24:45;14.50;;;7.50;;
17790;SDS011;9019;48.132;-1.210;2023-09-08T08:27:13;11.98;;;7.25;;
17790;SDS011;9019;48.132;-1.210;2023-09-08T08:29:40;13.15;;;8.05;;
17790;SDS011;9019;48.132;-1.210;2023-09-08T08:32:07;19.33;;;8.15;;
17790;SDS011;9019;48.132;-1.210;2023-09-08T08:34:36;14.70;;;8.00;;
17790;SDS011;9019;48.132;-1.210;2023-09-08T08:37:03;14.40;;;8.25;;
17790;SDS011;9019;48.132;-1.210;2023-09-08T08:39:30;17.42;;;8.50;;
17790;SDS011;9019;48.132;-1.210;2023-09-08T08:41:58;13.57;;;8.15;;
17790;SDS011;9019;48.132;-1.210;2023-09-08T08:44:25;12.40;;;7.43;;
17790;SDS011;9019;48.132;-1.210;2023-09-08T08:46:52;15.38;;;7.85;;
17790;SDS011;9019;48.132;-1.210;2023-09-08T08:49:20;20.38;;;7.72;;
17790;SDS011;9019;48.132;-1.210;2023-09-08T08:51:49;15.02;;;7.40;;
17790;SDS011;9019;48.132;-1.210;2023-09-08T08:54:17;14.40;;;8.15;;
17790;SDS011;9019;48.132;-1.210;2023-09-08T08:56:44;16.25;;;7.95;;
17790;SDS011;9019;48.132;-1.210;2023-09-08T08:59:11;14.07;;;7.18;;
17790;SDS011;9019;48.132;-1.210;2023-09-08T09:01:39;14.95;;;7.53;;
17790;SDS011;9019;48.132;-1.210;2023-09-08T09:04:08;13.95;;;8.10;;
17790;SDS011;9019;48.132;-1.210;2023-09-08T09:06:36;14.40;;;7.60;;
17790;SDS011;9019;48.132;-1.210;2023-09-08T09:09:05;17.45;;;7.65;;
17790;SDS011;9019;48.132;-1.210;2023-09-08T09:11:33;12.93;;;6.93;;
17790;SDS011;9019;48.132;-1.210;2023-09-08T09:14:00;15.20;;;7.03;;
17790;SDS011;9019;48.132;-1.210;2023-09-08T09:16:29;15.98;;;7.68;;
17790;SDS011;9019;48.132;-1.210;2023-09-08T09:18:57;13.27;;;6.57;;
17790;SDS011;9019;48.132;-1.210;2023-09-08T09:21:24;13.77;;;6.70;;
17790;SDS011;9019;48.132;-1.210;2023-09-08T09:24:08;15.00;;;6.30;;
17790;SDS011;9019;48.132;-1.210;2023-09-08T09:26:40;14.50;;;6.70;;
17790;SDS011;9019;48.132;-1.210;2023-09-08T09:29:11;12.73;;;6.28;;
17790;SDS011;9019;48.132;-1.210;2023-09-08T09:31:40;13.93;;;6.00;;
17790;SDS011;9019;48.132;-1.210;2023-09-08T09:34:17;10.73;;;5.95;;
17790;SDS011;9019;48.132;-1.210;2023-09-08T09:36:45;11.50;;;6.25;;
17790;SDS011;9019;48.132;-1.210;2023-09-08T09:39:17;11.80;;;6.13;;
17790;SDS011;9019;48.132;-1.210;2023-09-08T09:41:45;11.93;;;6.53;;
17790;SDS011;9019;48.132;-1.210;2023-09-08T09:44:12;13.23;;;6.22;;
17790;SDS011;9019;48.132;-1.210;2023-09-08T09:46:42;20.42;;;6.43;;
17790;SDS011;9019;48.132;-1.210;2023-09-08T09:49:10;13.27;;;6.07;;
17790;SDS011;9019;48.132;-1.210;2023-09-08T09:51:39;13.88;;;6.10;;
17790;SDS011;9019;48.132;-1.210;2023-09-08T09:54:07;17.42;;;6.97;;
17790;SDS011;9019;48.132;-1.210;2023-09-08T09:56:35;13.98;;;6.82;;
17790;SDS011;9019;48.132;-1.210;2023-09-08T09:59:04;11.00;;;5.70;;
17790;SDS011;9019;48.132;-1.210;2023-09-08T10:01:31;11.40;;;5.70;;
17790;SDS011;9019;48.132;-1.210;2023-09-08T10:03:59;9.88;;;5.35;;
17790;SDS011;9019;48.132;-1.210;2023-09-08T10:06:28;15.88;;;5.78;;
17790;SDS011;9019;48.132;-1.210;2023-09-08T10:08:58;14.88;;;5.78;;
17790;SDS011;9019;48.132;-1.210;2023-09-08T10:11:26;12.35;;;5.68;;
17790;SDS011;9019;48.132;-1.210;2023-09-08T10:13:57;11.40;;;5.03;;
17790;SDS011;9019;48.132;-1.210;2023-09-08T10:16:26;12.10;;;5.63;;
17790;SDS011;9019;48.132;-1.210;2023-09-08T10:18:54;8.38;;;5.10;;
17790;SDS011;9019;48.132;-1.210;2023-09-08T10:21:23;10.63;;;5.85;;
17790;SDS011;9019;48.132;-1.210;2023-09-08T10:23:54;15.05;;;6.32;;
17790;SDS011;9019;48.132;-1.210;2023-09-08T10:26:25;12.25;;;5.47;;
17790;SDS011;9019;48.132;-1.210;2023-09-08T10:28:53;13.88;;;5.82;;
17790;SDS011;9019;48.132;-1.210;2023-09-08T10:31:24;9.27;;;5.78;;
17790;SDS011;9019;48.132;-1.210;2023-09-08T10:33:51;10.38;;;5.15;;
17790;SDS011;9019;48.132;-1.210;2023-09-08T10:36:19;12.52;;;5.30;;
17790;SDS011;9019;48.132;-1.210;2023-09-08T10:38:46;12.88;;;5.75;;
17790;SDS011;9019;48.132;-1.210;2023-09-08T10:41:28;9.50;;;5.90;;
17790;SDS011;9019;48.132;-1.210;2023-09-08T10:43:57;10.98;;;5.50;;
17790;SDS011;9019;48.132;-1.210;2023-09-08T10:46:27;14.80;;;5.65;;
17790;SDS011;9019;48.132;-1.210;2023-09-08T10:48:55;12.63;;;5.70;;
17790;SDS011;9019;48.132;-1.210;2023-09-08T10:51:27;9.98;;;5.03;;
17790;SDS011;9019;48.132;-1.210;2023-09-08T10:53:54;8.52;;;5.18;;
17790;SDS011;9019;48.132;-1.210;2023-09-08T10:56:22;11.27;;;5.22;;
17790;SDS011;9019;48.132;-1.210;2023-09-08T10:58:53;13.13;;;4.97;;
17790;SDS011;9019;48.132;-1.210;2023-09-08T11:01:21;9.30;;;5.07;;
17790;SDS011;9019;48.132;-1.210;2023-09-08T11:03:53;12.18;;;5.38;;
17790;SDS011;9019;48.132;-1.210;2023-09-08T11:06:21;12.45;;;5.50;;
17790;SDS011;9019;48.132;-1.210;2023-09-08T11:08:48;19.83;;;5.93;;
17790;SDS011;9019;48.132;-1.210;2023-09-08T11:11:18;15.05;;;5.53;;
17790;SDS011;9019;48.132;-1.210;2023-09-08T11:13:45;11.07;;;5.68;;
17790;SDS011;9019;48.132;-1.210;2023-09-08T11:16:13;8.88;;;5.10;;
17790;SDS011;9019;48.132;-1.210;2023-09-08T11:18:41;9.40;;;5.50;;
17790;SDS011;9019;48.132;-1.210;2023-09-08T11:21:09;12.30;;;5.50;;
17790;SDS011;9019;48.132;-1.210;2023-09-08T11:23:37;12.55;;;5.55;;
17790;SDS011;9019;48.132;-1.210;2023-09-08T11:26:04;9.38;;;5.30;;
17790;SDS011;9019;48.132;-1.210;2023-09-08T11:28:34;9.10;;;5.20;;
17790;SDS011;9019;48.132;-1.210;2023-09-08T11:31:01;10.45;;;5.20;;
17790;SDS011;9019;48.132;-1.210;2023-09-08T11:33:32;9.93;;;5.20;;
17790;SDS011;9019;48.132;-1.210;2023-09-08T11:36:10;13.77;;;5.60;;
17790;SDS011;9019;48.132;-1.210;2023-09-08T11:38:39;17.10;;;5.28;;
17790;SDS011;9019;48.132;-1.210;2023-09-08T11:41:07;11.32;;;5.95;;
17790;SDS011;9019;48.132;-1.210;2023-09-08T11:43:34;11.63;;;5.22;;
17790;SDS011;9019;48.132;-1.210;2023-09-08T11:46:01;10.95;;;5.60;;
17790;SDS011;9019;48.132;-1.210;2023-09-08T11:48:29;9.65;;;5.20;;
17790;SDS011;9019;48.132;-1.210;2023-09-08T11:50:56;9.45;;;5.30;;
17790;SDS011;9019;48.132;-1.210;2023-09-08T11:53:24;11.95;;;5.30;;
17790;SDS011;9019;48.132;-1.210;2023-09-08T11:55:53;10.13;;;5.60;;
17790;SDS011;9019;48.132;-1.210;2023-09-08T11:58:20;9.80;;;5.20;;
17790;SDS011;9019;48.132;-1.210;2023-09-08T12:00:48;9.40;;;5.82;;
17790;SDS011;9019;48.132;-1.210;2023-09-08T12:03:16;13.40;;;5.97;;
17790;SDS011;9019;48.132;-1.210;2023-09-08T12:05:44;11.93;;;5.85;;
17790;SDS011;9019;48.132;-1.210;2023-09-08T12:08:12;10.23;;;5.78;;
17790;SDS011;9019;48.132;-1.210;2023-09-08T12:10:40;15.10;;;6.68;;
17790;SDS011;9019;48.132;-1.210;2023-09-08T12:13:09;14.65;;;6.93;;
17790;SDS011;9019;48.132;-1.210;2023-09-08T12:15:39;13.38;;;6.47;;
17790;SDS011;9019;48.132;-1.210;2023-09-08T12:18:07;19.52;;;6.70;;
17790;SDS011;9019;48.132;-1.210;2023-09-08T12:20:35;12.98;;;6.05;;
17790;SDS011;9019;48.132;-1.210;2023-09-08T12:23:03;14.40;;;6.32;;
17790;SDS011;9019;48.132;-1.210;2023-09-08T12:25:30;16.17;;;6.50;;
17790;SDS011;9019;48.132;-1.210;2023-09-08T12:27:59;11.25;;;6.57;;
17790;SDS011;9019;48.132;-1.210;2023-09-08T12:30:28;12.50;;;7.03;;
17790;SDS011;9019;48.132;-1.210;2023-09-08T12:32:58;15.30;;;6.50;;
17790;SDS011;9019;48.132;-1.210;2023-09-08T12:35:25;12.02;;;5.97;;
17790;SDS011;9019;48.132;-1.210;2023-09-08T12:37:53;15.90;;;6.63;;
17790;SDS011;9019;48.132;-1.210;2023-09-08T12:40:24;13.40;;;6.07;;
17790;SDS011;9019;48.132;-1.210;2023-09-08T12:42:51;14.75;;;6.15;;
17790;SDS011;9019;48.132;-1.210;2023-09-08T12:45:19;14.45;;;6.35;;
17790;SDS011;9019;48.132;-1.210;2023-09-08T12:47:48;12.88;;;5.50;;
17790;SDS011;9019;48.132;-1.210;2023-09-08T12:50:16;13.05;;;5.70;;
17790;SDS011;9019;48.132;-1.210;2023-09-08T12:52:43;9.48;;;5.35;;
17790;SDS011;9019;48.132;-1.210;2023-09-08T12:55:11;16.17;;;6.15;;
17790;SDS011;9019;48.132;-1.210;2023-09-08T12:57:38;11.18;;;5.60;;
17790;SDS011;9019;48.132;-1.210;2023-09-08T13:00:05;13.73;;;5.82;;
17790;SDS011;9019;48.132;-1.210;2023-09-08T13:02:33;12.43;;;5.63;;
17790;SDS011;9019;48.132;-1.210;2023-09-08T13:05:02;16.73;;;5.80;;
17790;SDS011;9019;48.132;-1.210;2023-09-08T13:07:29;10.00;;;5.20;;
17790;SDS011;9019;48.132;-1.210;2023-09-08T13:09:57;9.18;;;5.72;;
17790;SDS011;9019;48.132;-1.210;2023-09-08T13:12:24;12.90;;;5.65;;
17790;SDS011;9019;48.132;-1.210;2023-09-08T13:14:51;10.15;;;4.70;;
17790;SDS011;9019;48.132;-1.210;2023-09-08T13:17:19;12.65;;;5.40;;
17790;SDS011;9019;48.132;-1.210;2023-09-08T13:19:46;11.13;;;6.13;;
17790;SDS011;9019;48.132;-1.210;2023-09-08T13:22:15;9.82;;;5.40;;
17790;SDS011;9019;48.132;-1.210;2023-09-08T13:24:42;16.38;;;6.45;;
17790;SDS011;9019;48.132;-1.210;2023-09-08T13:27:09;8.35;;;4.80;;
17790;SDS011;9019;48.132;-1.210;2023-09-08T13:29:37;11.93;;;5.60;;
17790;SDS011;9019;48.132;-1.210;2023-09-08T13:32:05;15.85;;;5.85;;
17790;SDS011;9019;48.132;-1.210;2023-09-08T13:34:32;12.23;;;5.72;;
17790;SDS011;9019;48.132;-1.210;2023-09-08T13:37:00;15.40;;;5.97;;
17790;SDS011;9019;48.132;-1.210;2023-09-08T13:39:29;13.48;;;5.55;;
17790;SDS011;9019;48.132;-1.210;2023-09-08T13:42:05;10.50;;;5.50;;
17790;SDS011;9019;48.132;-1.210;2023-09-08T13:44:32;11.55;;;6.15;;
17790;SDS011;9019;48.132;-1.210;2023-09-08T13:47:00;14.52;;;5.95;;
17790;SDS011;9019;48.132;-1.210;2023-09-08T13:49:27;12.07;;;5.40;;
17790;SDS011;9019;48.132;-1.210;2023-09-08T13:51:54;14.90;;;5.57;;
17790;SDS011;9019;48.132;-1.210;2023-09-08T13:54:22;13.63;;;5.65;;
17790;SDS011;9019;48.132;-1.210;2023-09-08T13:56:58;10.43;;;5.63;;
17790;SDS011;9019;48.132;-1.210;2023-09-08T13:59:26;14.82;;;5.53;;
17790;SDS011;9019;48.132;-1.210;2023-09-08T14:01:54;13.32;;;5.45;;
17790;SDS011;9019;48.132;-1.210;2023-09-08T14:04:22;13.95;;;5.57;;
17790;SDS011;9019;48.132;-1.210;2023-09-08T14:06:49;10.60;;;5.80;;
17790;SDS011;9019;48.132;-1.210;2023-09-08T14:09:17;7.88;;;5.25;;
17790;SDS011;9019;48.132;-1.210;2023-09-08T14:11:44;12.88;;;5.65;;
17790;SDS011;9019;48.132;-1.210;2023-09-08T14:14:13;15.27;;;5.97;;
17790;SDS011;9019;48.132;-1.210;2023-09-08T14:16:40;10.02;;;5.28;;
17790;SDS011;9019;48.132;-1.210;2023-09-08T14:19:07;26.70;;;5.70;;
17790;SDS011;9019;48.132;-1.210;2023-09-08T14:21:34;16.98;;;5.97;;
17790;SDS011;9019;48.132;-1.210;2023-09-08T14:24:04;11.05;;;5.60;;
17790;SDS011;9019;48.132;-1.210;2023-09-08T14:26:32;14.65;;;5.53;;
17790;SDS011;9019;48.132;-1.210;2023-09-08T14:29:00;13.95;;;5.30;;
17790;SDS011;9019;48.132;-1.210;2023-09-08T14:31:28;10.50;;;5.22;;
17790;SDS011;9019;48.132;-1.210;2023-09-08T14:33:56;7.90;;;5.38;;
17790;SDS011;9019;48.132;-1.210;2023-09-08T14:36:23;11.68;;;5.53;;